createdAt,value
2017-04-09T00:00:09.006Z,101158
2017-04-09T00:01:08.804Z,101149
2017-04-09T00:02:08.659Z,101156
2017-04-09T00:03:09.240Z,101157
2017-04-09T00:04:08.685Z,101154
2017-04-09T00:05:09.280Z,101157
2017-04-09T00:06:09.318Z,101154
2017-04-09T00:07:09.267Z,101153
2017-04-09T00:08:09.375Z,101151
2017-04-09T00:09:08.850Z,101153
2017-04-09T00:10:08.921Z,101150
2017-04-09T00:11:09.465Z,101152
2017-04-09T00:12:08.979Z,101149
2017-04-09T00:13:09.843Z,101149
2017-04-09T00:14:09.077Z,101151
2017-04-09T00:15:09.684Z,101148
2017-04-09T00:16:09.736Z,101146
2017-04-09T00:17:09.237Z,101149
2017-04-09T00:18:09.872Z,101146
2017-04-09T00:19:10.257Z,101147
2017-04-09T00:20:10.037Z,101146
2017-04-09T00:21:10.050Z,101147
2017-04-09T00:22:10.104Z,101143
2017-04-09T00:23:10.174Z,101145
2017-04-09T00:24:09.730Z,101145
2017-04-09T00:25:10.075Z,101144
2017-04-09T00:26:09.844Z,101143
2017-04-09T00:27:09.937Z,101145
2017-04-09T00:28:10.540Z,101142
2017-04-09T00:29:10.002Z,101141
2017-04-09T00:30:10.670Z,101141
2017-04-09T00:31:10.507Z,101141
2017-04-09T00:32:10.161Z,101138
2017-04-09T00:33:10.300Z,101137
2017-04-09T00:34:10.910Z,101142
2017-04-09T00:35:10.992Z,101140
2017-04-09T00:36:10.551Z,101138
2017-04-09T00:37:11.329Z,101139
2017-04-09T00:38:10.607Z,101139
2017-04-09T00:39:11.244Z,101133
2017-04-09T00:40:10.676Z,101132
2017-04-09T00:41:11.296Z,101128
2017-04-09T00:42:11.387Z,101137
2017-04-09T00:43:11.200Z,101135
2017-04-09T00:44:10.955Z,101139
2017-04-09T00:45:11.541Z,101135
2017-04-09T00:46:11.607Z,101132
2017-04-09T00:47:11.690Z,101135
2017-04-09T00:48:11.743Z,101138
2017-04-09T00:49:12.087Z,101134
2017-04-09T00:50:11.292Z,101129
2017-04-09T00:51:11.329Z,101132
2017-04-09T00:52:12.001Z,101134
2017-04-09T00:53:11.421Z,101134
2017-04-09T00:54:12.116Z,101134
2017-04-09T00:55:11.923Z,101134
2017-04-09T00:56:12.126Z,101135
2017-04-09T00:57:12.181Z,101132
2017-04-09T00:58:11.718Z,101136
2017-04-09T00:59:12.238Z,101127
2017-04-09T01:00:11.754Z,101133
2017-04-09T01:01:12.589Z,101133
2017-04-09T01:02:11.916Z,101135
2017-04-09T01:03:12.508Z,101125
2017-04-09T01:04:12.533Z,101128
2017-04-09T01:05:12.593Z,101133
2017-04-09T01:06:12.160Z,101132
2017-04-09T01:07:13.058Z,101123
2017-04-09T01:08:12.297Z,101132
2017-04-09T01:09:12.880Z,101130
2017-04-09T01:10:12.438Z,101136
2017-04-09T01:11:12.485Z,101129
2017-04-09T01:12:12.509Z,101131
2017-04-09T01:13:13.278Z,101128
2017-04-09T01:14:12.502Z,101127
2017-04-09T01:15:13.090Z,101129
2017-04-09T01:16:12.579Z,101124
2017-04-09T01:17:12.562Z,101126
2017-04-09T01:18:12.563Z,101124
2017-04-09T01:19:12.880Z,101124
2017-04-09T01:20:13.216Z,101114
2017-04-09T01:21:13.265Z,101120
2017-04-09T01:22:13.278Z,101122
2017-04-09T01:23:13.354Z,101122
2017-04-09T01:24:12.824Z,101124
2017-04-09T01:25:13.125Z,101121
2017-04-09T01:26:12.936Z,101114
2017-04-09T01:27:13.020Z,101122
2017-04-09T01:28:13.698Z,101120
2017-04-09T01:29:13.227Z,101117
2017-04-09T01:30:13.314Z,101115
2017-04-09T01:31:14.091Z,101117
2017-04-09T01:32:13.841Z,101118
2017-04-09T01:33:13.868Z,101113
2017-04-09T01:34:13.394Z,101111
2017-04-09T01:35:14.002Z,101112
2017-04-09T01:36:13.509Z,101104
2017-04-09T01:37:13.830Z,101111
2017-04-09T01:38:13.641Z,101112
2017-04-09T01:39:14.312Z,101115
2017-04-09T01:40:14.332Z,101113
2017-04-09T01:41:13.812Z,101111
2017-04-09T01:42:13.956Z,101116
2017-04-09T01:43:14.770Z,101103
2017-04-09T01:44:14.048Z,101112
2017-04-09T01:45:14.077Z,101112
2017-04-09T01:46:14.702Z,101109
2017-04-09T01:47:14.251Z,101114
2017-04-09T01:48:14.303Z,101116
2017-04-09T01:49:15.177Z,101114
2017-04-09T01:50:14.915Z,101106
2017-04-09T01:51:14.343Z,101112
2017-04-09T01:52:14.378Z,101118
2017-04-09T01:53:14.971Z,101115
2017-04-09T01:54:14.484Z,101113
2017-04-09T01:55:15.379Z,101107
2017-04-09T01:56:14.551Z,101112
2017-04-09T01:57:15.176Z,101111
2017-04-09T01:58:15.282Z,101111
2017-04-09T01:59:14.756Z,101113
2017-04-09T02:00:14.806Z,101110
2017-04-09T02:01:15.690Z,101113
2017-04-09T02:02:15.414Z,101113
2017-04-09T02:03:14.969Z,101111
2017-04-09T02:04:15.019Z,101113
2017-04-09T02:05:15.061Z,101107
2017-04-09T02:06:15.139Z,101115
2017-04-09T02:07:15.437Z,101105
2017-04-09T02:08:15.205Z,101111
2017-04-09T02:09:15.841Z,101116
2017-04-09T02:10:15.329Z,101114
2017-04-09T02:11:15.466Z,101116
2017-04-09T02:12:15.470Z,101106
2017-04-09T02:13:16.279Z,101112
2017-04-09T02:14:15.501Z,101114
2017-04-09T02:15:16.158Z,101108
2017-04-09T02:16:15.702Z,101111
2017-04-09T02:17:16.274Z,101109
2017-04-09T02:18:16.146Z,101103
2017-04-09T02:19:16.476Z,101110
2017-04-09T02:20:16.518Z,101099
2017-04-09T02:21:16.578Z,101107
2017-04-09T02:22:16.060Z,101106
2017-04-09T02:23:16.133Z,101111
2017-04-09T02:24:16.488Z,101106
2017-04-09T02:25:16.800Z,101104
2017-04-09T02:26:16.312Z,101106
2017-04-09T02:27:16.947Z,101101
2017-04-09T02:28:16.491Z,101104
2017-04-09T02:29:17.076Z,101101
2017-04-09T02:30:16.898Z,101103
2017-04-09T02:31:05.734Z,101102
2017-04-09T02:32:05.781Z,101100
2017-04-09T02:33:05.303Z,101102
2017-04-09T02:34:05.324Z,101103
2017-04-09T02:35:05.936Z,101098
2017-04-09T02:36:05.731Z,101098
2017-04-09T02:37:06.087Z,101089
2017-04-09T02:38:06.139Z,101096
2017-04-09T02:39:05.683Z,101096
2017-04-09T02:40:06.236Z,101093
2017-04-09T02:41:05.746Z,101102
2017-04-09T02:42:06.303Z,101098
2017-04-09T02:43:05.827Z,101099
2017-04-09T02:44:05.837Z,101092
2017-04-09T02:45:05.886Z,101096
2017-04-09T02:46:06.388Z,101092
2017-04-09T02:47:05.886Z,101097
2017-04-09T02:48:06.511Z,101097
2017-04-09T02:49:06.025Z,101092
2017-04-09T02:50:06.049Z,101097
2017-04-09T02:51:06.118Z,101093
2017-04-09T02:52:06.747Z,101092
2017-04-09T02:53:06.290Z,101090
2017-04-09T02:54:06.866Z,101091
2017-04-09T02:55:06.352Z,101090
2017-04-09T02:56:06.497Z,101090
2017-04-09T02:57:06.977Z,101082
2017-04-09T02:58:07.045Z,101090
2017-04-09T02:59:06.546Z,101095
2017-04-09T03:00:07.063Z,101092
2017-04-09T03:01:06.567Z,101088
2017-04-09T03:02:06.556Z,101083
2017-04-09T03:03:07.106Z,101087
2017-04-09T03:04:07.178Z,101088
2017-04-09T03:05:06.705Z,101083
2017-04-09T03:06:06.804Z,101085
2017-04-09T03:07:07.418Z,101089
2017-04-09T03:08:06.820Z,101080
2017-04-09T03:09:07.383Z,101088
2017-04-09T03:10:06.912Z,101080
2017-04-09T03:11:06.990Z,101083
2017-04-09T03:12:07.050Z,101082
2017-04-09T03:13:07.044Z,101077
2017-04-09T03:14:07.061Z,101084
2017-04-09T03:15:07.668Z,101088
2017-04-09T03:16:07.718Z,101079
2017-04-09T03:17:07.238Z,101085
2017-04-09T03:18:07.735Z,101084
2017-04-09T03:19:07.748Z,101084
2017-04-09T03:20:07.267Z,101084
2017-04-09T03:21:07.898Z,101085
2017-04-09T03:22:08.030Z,101086
2017-04-09T03:23:07.501Z,101085
2017-04-09T03:24:08.086Z,101084
2017-04-09T03:25:08.093Z,101081
2017-04-09T03:26:08.182Z,101086
2017-04-09T03:27:07.661Z,101081
2017-04-09T03:28:07.756Z,101084
2017-04-09T03:29:08.343Z,101082
2017-04-09T03:30:08.392Z,101079
2017-04-09T03:31:07.854Z,101087
2017-04-09T03:32:08.406Z,101079
2017-04-09T03:33:07.894Z,101087
2017-04-09T03:34:08.523Z,101088
2017-04-09T03:35:08.059Z,101079
2017-04-09T03:36:08.087Z,101089
2017-04-09T03:37:08.664Z,101093
2017-04-09T03:38:08.178Z,101090
2017-04-09T03:39:08.718Z,101089
2017-04-09T03:40:08.751Z,101082
2017-04-09T03:41:08.258Z,101091
2017-04-09T03:42:08.343Z,101092
2017-04-09T03:43:08.443Z,101092
2017-04-09T03:44:09.064Z,101095
2017-04-09T03:45:09.087Z,101096
2017-04-09T03:46:08.637Z,101092
2017-04-09T03:47:09.201Z,101095
2017-04-09T03:48:09.265Z,101093
2017-04-09T03:49:08.770Z,101091
2017-04-09T03:50:09.379Z,101092
2017-04-09T03:51:08.919Z,101088
2017-04-09T03:52:09.009Z,101092
2017-04-09T03:53:08.985Z,101096
2017-04-09T03:54:09.649Z,101093
2017-04-09T03:55:09.660Z,101094
2017-04-09T03:56:09.684Z,101094
2017-04-09T03:57:09.240Z,101096
2017-04-09T03:58:09.381Z,101092
2017-04-09T03:59:10.023Z,101093
2017-04-09T04:00:10.037Z,101092
2017-04-09T04:01:10.109Z,101082
2017-04-09T04:02:09.679Z,101090
2017-04-09T04:03:09.773Z,101092
2017-04-09T04:04:10.351Z,101089
2017-04-09T04:05:09.886Z,101093
2017-04-09T04:06:09.907Z,101082
2017-04-09T04:07:09.918Z,101090
2017-04-09T04:08:10.595Z,101087
2017-04-09T04:09:10.563Z,101092
2017-04-09T04:10:10.097Z,101090
2017-04-09T04:11:10.105Z,101087
2017-04-09T04:12:10.140Z,101087
2017-04-09T04:13:10.655Z,101086
2017-04-09T04:14:10.206Z,101090
2017-04-09T04:15:10.280Z,101080
2017-04-09T04:16:10.866Z,101087
2017-04-09T04:17:10.943Z,101090
2017-04-09T04:18:11.048Z,101089
2017-04-09T04:19:11.056Z,101088
2017-04-09T04:20:11.122Z,101095
2017-04-09T04:21:10.654Z,101088
2017-04-09T04:22:10.725Z,101088
2017-04-09T04:23:10.842Z,101089
2017-04-09T04:24:10.910Z,101095
2017-04-09T04:25:10.991Z,101091
2017-04-09T04:26:11.004Z,101086
2017-04-09T04:27:11.594Z,101091
2017-04-09T04:28:11.086Z,101092
2017-04-09T04:29:11.152Z,101092
2017-04-09T04:30:11.128Z,101088
2017-04-09T04:31:11.198Z,101091
2017-04-09T04:32:11.846Z,101094
2017-04-09T04:33:11.314Z,101095
2017-04-09T04:34:11.974Z,101095
2017-04-09T04:35:12.046Z,101092
2017-04-09T04:36:11.570Z,101097
2017-04-09T04:37:12.200Z,101096
2017-04-09T04:38:12.266Z,101094
2017-04-09T04:39:12.585Z,101095
2017-04-09T04:40:12.313Z,101095
2017-04-09T04:41:12.401Z,101097
2017-04-09T04:42:12.480Z,101100
2017-04-09T04:43:12.009Z,101098
2017-04-09T04:44:12.026Z,101099
2017-04-09T04:45:12.791Z,101101
2017-04-09T04:46:12.526Z,101097
2017-04-09T04:47:12.090Z,101101
2017-04-09T04:48:12.704Z,101098
2017-04-09T04:49:12.776Z,101091
2017-04-09T04:50:12.868Z,101098
2017-04-09T04:51:13.091Z,101101
2017-04-09T04:52:12.408Z,101104
2017-04-09T04:53:13.008Z,101092
2017-04-09T04:54:12.572Z,101098
2017-04-09T04:55:13.107Z,101105
2017-04-09T04:56:12.661Z,101096
2017-04-09T04:57:12.948Z,101101
2017-04-09T04:58:13.399Z,101100
2017-04-09T04:59:12.752Z,101105
2017-04-09T05:00:12.774Z,101106
2017-04-09T05:01:13.360Z,101099
2017-04-09T05:02:13.408Z,101107
2017-04-09T05:03:13.326Z,101108
2017-04-09T05:04:12.942Z,101107
2017-04-09T05:05:13.036Z,101107
2017-04-09T05:06:13.110Z,101110
2017-04-09T05:07:13.200Z,101111
2017-04-09T05:08:13.222Z,101113
2017-04-09T05:09:13.557Z,101112
2017-04-09T05:10:13.745Z,101107
2017-04-09T05:11:13.318Z,101109
2017-04-09T05:12:13.357Z,101108
2017-04-09T05:13:13.957Z,101104
2017-04-09T05:14:13.921Z,101109
2017-04-09T05:15:14.279Z,101106
2017-04-09T05:16:14.021Z,101110
2017-04-09T05:17:14.101Z,101111
2017-04-09T05:18:14.091Z,101117
2017-04-09T05:19:13.660Z,101106
2017-04-09T05:20:14.277Z,101114
2017-04-09T05:21:14.004Z,101116
2017-04-09T05:22:14.325Z,101120
2017-04-09T05:23:13.813Z,101109
2017-04-09T05:24:13.874Z,101119
2017-04-09T05:25:13.944Z,101121
2017-04-09T05:26:14.005Z,101123
2017-04-09T05:27:14.380Z,101123
2017-04-09T05:28:14.147Z,101123
2017-04-09T05:29:14.115Z,101120
2017-04-09T05:30:14.100Z,101122
2017-04-09T05:31:14.295Z,101124
2017-04-09T05:32:14.843Z,101127
2017-04-09T05:33:15.154Z,101126
2017-04-09T05:34:14.498Z,101126
2017-04-09T05:35:14.493Z,101122
2017-04-09T05:36:14.468Z,101120
2017-04-09T05:37:14.531Z,101126
2017-04-09T05:38:15.123Z,101124
2017-04-09T05:39:15.387Z,101122
2017-04-09T05:40:14.654Z,101131
2017-04-09T05:41:14.737Z,101130
2017-04-09T05:42:14.773Z,101129
2017-04-09T05:43:14.746Z,101123
2017-04-09T05:44:14.776Z,101129
2017-04-09T05:45:15.192Z,101128
2017-04-09T05:46:14.958Z,101132
2017-04-09T05:47:15.548Z,101130
2017-04-09T05:48:15.107Z,101129
2017-04-09T05:49:15.728Z,101133
2017-04-09T05:50:15.212Z,101125
2017-04-09T05:51:16.057Z,101128
2017-04-09T05:52:15.283Z,101132
2017-04-09T05:53:15.429Z,101134
2017-04-09T05:54:15.466Z,101132
2017-04-09T05:55:15.509Z,101124
2017-04-09T05:56:16.108Z,101135
2017-04-09T05:57:15.903Z,101134
2017-04-09T05:58:16.237Z,101132
2017-04-09T05:59:15.732Z,101125
2017-04-09T06:00:15.735Z,101134
2017-04-09T06:01:15.831Z,101134
2017-04-09T06:02:15.798Z,101135
2017-04-09T06:03:16.717Z,101135
2017-04-09T06:04:16.500Z,101125
2017-04-09T06:05:15.971Z,101134
2017-04-09T06:06:15.991Z,101135
2017-04-09T06:07:16.053Z,101129
2017-04-09T06:08:16.033Z,101134
2017-04-09T06:09:16.379Z,101136
2017-04-09T06:10:16.654Z,101126
2017-04-09T06:11:16.159Z,101135
2017-04-09T06:12:16.757Z,101137
2017-04-09T06:13:16.266Z,101138
2017-04-09T06:14:16.864Z,101136
2017-04-09T06:15:17.203Z,101137
2017-04-09T06:16:17.046Z,101139
2017-04-09T06:17:16.531Z,101140
2017-04-09T06:18:17.172Z,101140
2017-04-09T06:19:16.668Z,101133
2017-04-09T06:20:16.716Z,101133
2017-04-09T06:21:16.972Z,101144
2017-04-09T06:22:17.349Z,101140
2017-04-09T06:23:16.793Z,101140
2017-04-09T06:24:17.361Z,101142
2017-04-09T06:25:17.444Z,101139
2017-04-09T06:26:17.495Z,101145
2017-04-09T06:27:17.308Z,101143
2017-04-09T06:28:17.118Z,101145
2017-04-09T06:29:17.118Z,101144
2017-04-09T06:30:17.703Z,101144
2017-04-09T06:31:17.271Z,101147
2017-04-09T06:32:17.362Z,101141
2017-04-09T06:33:18.226Z,101141
2017-04-09T06:34:17.528Z,101144
2017-04-09T06:35:17.532Z,101146
2017-04-09T06:36:18.112Z,101142
2017-04-09T06:37:17.605Z,101135
2017-04-09T06:38:18.132Z,101144
2017-04-09T06:39:18.466Z,101140
2017-04-09T06:40:17.681Z,101144
2017-04-09T06:41:17.682Z,101142
2017-04-09T06:42:17.769Z,101143
2017-04-09T06:43:17.830Z,101141
2017-04-09T06:44:18.346Z,101147
2017-04-09T06:45:18.700Z,101150
2017-04-09T06:46:18.459Z,101150
2017-04-09T06:47:18.014Z,101149
2017-04-09T06:48:18.548Z,101151
2017-04-09T06:49:18.049Z,101149
2017-04-09T06:50:18.050Z,101153
2017-04-09T06:51:18.347Z,101150
2017-04-09T06:52:18.092Z,101153
2017-04-09T06:53:18.211Z,101145
2017-04-09T06:54:18.737Z,101152
2017-04-09T06:55:18.763Z,101155
2017-04-09T06:56:18.345Z,101152
2017-04-09T06:57:19.166Z,101154
2017-04-09T06:58:18.409Z,101149
2017-04-09T06:59:18.505Z,101155
2017-04-09T07:00:19.005Z,101147
2017-04-09T07:01:19.069Z,101155
2017-04-09T07:02:20.057Z,101157
2017-04-09T07:03:19.602Z,101155
2017-04-09T07:04:19.439Z,101153
2017-04-09T07:05:18.866Z,101146
2017-04-09T07:06:18.956Z,101157
2017-04-09T07:07:19.457Z,101156
2017-04-09T07:08:19.533Z,101151
2017-04-09T07:09:19.850Z,101154
2017-04-09T07:10:19.640Z,101156
2017-04-09T07:11:19.235Z,101150
2017-04-09T07:12:19.304Z,101162
2017-04-09T07:13:19.940Z,101161
2017-04-09T07:14:19.441Z,101156
2017-04-09T07:15:20.285Z,101158
2017-04-09T07:16:19.555Z,101158
2017-04-09T07:17:19.653Z,101162
2017-04-09T07:18:19.623Z,101159
2017-04-09T07:19:19.708Z,101155
2017-04-09T07:20:20.289Z,101153
2017-04-09T07:21:20.114Z,101159
2017-04-09T07:22:19.892Z,101157
2017-04-09T07:23:20.434Z,101151
2017-04-09T07:24:20.441Z,101146
2017-04-09T07:25:19.905Z,101154
2017-04-09T07:26:21.127Z,101151
2017-04-09T07:27:20.853Z,101153
2017-04-09T07:28:20.051Z,101155
2017-04-09T07:29:20.138Z,101149
2017-04-09T07:30:20.164Z,101156
2017-04-09T07:31:20.136Z,101150
2017-04-09T07:32:20.231Z,101150
2017-04-09T07:33:21.159Z,101154
2017-04-09T07:34:20.416Z,101147
2017-04-09T07:35:20.457Z,101154
2017-04-09T07:36:20.560Z,101154
2017-04-09T07:37:21.177Z,101161
2017-04-09T07:38:20.654Z,101157
2017-04-09T07:39:21.018Z,101154
2017-04-09T07:40:21.411Z,101155
2017-04-09T07:41:20.906Z,101160
2017-04-09T07:42:21.044Z,101159
2017-04-09T07:43:21.562Z,101160
2017-04-09T07:44:21.134Z,101157
2017-04-09T07:45:22.104Z,101158
2017-04-09T07:46:21.797Z,101153
2017-04-09T07:47:21.303Z,101164
2017-04-09T07:48:21.333Z,101158
2017-04-09T07:49:21.403Z,101160
2017-04-09T07:50:21.484Z,101161
2017-04-09T07:51:22.257Z,101164
2017-04-09T07:52:22.546Z,101166
2017-04-09T07:53:22.100Z,101168
2017-04-09T07:54:21.684Z,101164
2017-04-09T07:55:22.180Z,101159
2017-04-09T07:56:22.254Z,101167
2017-04-09T07:57:22.601Z,101171
2017-04-09T07:58:22.414Z,101165
2017-04-09T07:59:22.462Z,101169
2017-04-09T08:00:22.023Z,101166
2017-04-09T08:01:22.552Z,101167
2017-04-09T08:02:22.128Z,101168
2017-04-09T08:03:22.976Z,101165
2017-04-09T08:04:22.277Z,101153
2017-04-09T08:05:22.298Z,101160
2017-04-09T08:06:22.348Z,101157
2017-04-09T08:07:22.369Z,101160
2017-04-09T08:08:22.922Z,101156
2017-04-09T08:09:22.688Z,101162
2017-04-09T08:10:22.955Z,101158
2017-04-09T08:11:23.039Z,101157
2017-04-09T08:12:23.101Z,101156
2017-04-09T08:13:22.582Z,101151
2017-04-09T08:14:23.179Z,101158
2017-04-09T08:15:23.538Z,101158
2017-04-09T08:16:22.707Z,101158
2017-04-09T08:17:22.857Z,101157
2017-04-09T08:18:23.450Z,101157
2017-04-09T08:19:22.969Z,101159
2017-04-09T08:20:23.521Z,101152
2017-04-09T08:21:23.853Z,101160
2017-04-09T08:22:23.057Z,101157
2017-04-09T08:23:23.657Z,101159
2017-04-09T08:24:23.635Z,101156
2017-04-09T08:25:23.214Z,101151
2017-04-09T08:26:23.750Z,101155
2017-04-09T08:27:24.069Z,101153
2017-04-09T08:28:23.262Z,101151
2017-04-09T08:29:23.906Z,101154
2017-04-09T08:30:23.934Z,101157
2017-04-09T08:31:23.482Z,101150
2017-04-09T08:32:23.468Z,101153
2017-04-09T08:33:23.752Z,101156
2017-04-09T08:34:24.075Z,101156
2017-04-09T08:35:24.158Z,101159
2017-04-09T08:36:23.704Z,101146
2017-04-09T08:37:24.330Z,101148
2017-04-09T08:38:24.401Z,101156
2017-04-09T08:39:24.136Z,101158
2017-04-09T08:40:24.483Z,101158
2017-04-09T08:41:24.039Z,101158
2017-04-09T08:42:24.117Z,101156
2017-04-09T08:43:24.155Z,101161
2017-04-09T08:44:24.236Z,101161
2017-04-09T08:45:25.111Z,101160
2017-04-09T08:46:24.900Z,101161
2017-04-09T08:47:24.959Z,101162
2017-04-09T08:48:24.525Z,101151
2017-04-09T08:49:24.564Z,101154
2017-04-09T08:50:24.614Z,101163
2017-04-09T08:51:25.464Z,101163
2017-04-09T08:52:25.226Z,101157
2017-04-09T08:53:25.283Z,101162
2017-04-09T08:54:24.840Z,101162
2017-04-09T08:55:25.465Z,101161
2017-04-09T08:56:24.982Z,101164
2017-04-09T08:57:25.249Z,101157
2017-04-09T08:58:25.622Z,101163
2017-04-09T08:59:25.718Z,101166
2017-04-09T09:00:25.203Z,101164
2017-04-09T09:01:25.256Z,101160
2017-04-09T09:02:25.794Z,101164
2017-04-09T09:03:26.078Z,101152
2017-04-09T09:04:25.351Z,101163
2017-04-09T09:05:25.330Z,101160
2017-04-09T09:06:25.389Z,101164
2017-04-09T09:07:25.484Z,101165
2017-04-09T09:08:25.980Z,101164
2017-04-09T09:09:26.314Z,101164
2017-04-09T09:10:25.638Z,101160
2017-04-09T09:11:26.223Z,101162
2017-04-09T09:12:26.317Z,101154
2017-04-09T09:13:26.394Z,101153
2017-04-09T09:14:25.963Z,101163
2017-04-09T09:15:26.751Z,101155
2017-04-09T09:16:26.536Z,101158
2017-04-09T09:17:26.532Z,101164
2017-04-09T09:18:26.015Z,101161
2017-04-09T09:19:26.105Z,101157
2017-04-09T09:20:26.707Z,101156
2017-04-09T09:21:27.042Z,101156
2017-04-09T09:22:26.775Z,101156
2017-04-09T09:23:26.254Z,101157
2017-04-09T09:24:26.297Z,101158
2017-04-09T09:25:26.807Z,101158
2017-04-09T09:26:26.377Z,101151
2017-04-09T09:27:27.227Z,101155
2017-04-09T09:28:26.453Z,101157
2017-04-09T09:29:26.482Z,101153
2017-04-09T09:30:26.493Z,101153
2017-04-09T09:31:26.509Z,101152
2017-04-09T09:32:27.180Z,101153
2017-04-09T09:33:26.993Z,101156
2017-04-09T09:34:26.674Z,101156
2017-04-09T09:35:27.285Z,101152
2017-04-09T09:36:27.250Z,101151
2017-04-09T09:37:26.736Z,101152
2017-04-09T09:38:26.807Z,101151
2017-04-09T09:39:27.187Z,101148
2017-04-09T09:40:27.389Z,101148
2017-04-09T09:41:26.929Z,101145
2017-04-09T09:42:26.969Z,101145
2017-04-09T09:43:27.542Z,101141
2017-04-09T09:44:27.621Z,101148
2017-04-09T09:45:27.916Z,101144
2017-04-09T09:46:27.673Z,101146
2017-04-09T09:47:27.757Z,101147
2017-04-09T09:48:27.763Z,101144
2017-04-09T09:49:27.835Z,101140
2017-04-09T09:50:27.407Z,101141
2017-04-09T09:51:27.725Z,101142
2017-04-09T09:52:28.110Z,101143
2017-04-09T09:53:28.138Z,101138
2017-04-09T09:54:28.121Z,101139
2017-04-09T09:55:28.221Z,101129
2017-04-09T09:56:28.273Z,101138
2017-04-09T09:57:28.093Z,101136
2017-04-09T09:58:28.436Z,101139
2017-04-09T09:59:27.995Z,101127
2017-04-09T10:00:27.989Z,101138
2017-04-09T10:01:28.495Z,101125
2017-04-09T10:02:28.566Z,101136
2017-04-09T10:03:28.317Z,101132
2017-04-09T10:04:28.640Z,101128
2017-04-09T10:05:28.093Z,101134
2017-04-09T10:06:28.722Z,101126
2017-04-09T10:07:28.815Z,101129
2017-04-09T10:08:28.306Z,101122
2017-04-09T10:09:29.118Z,101130
2017-04-09T10:10:28.414Z,101128
2017-04-09T10:11:28.392Z,101124
2017-04-09T10:12:28.989Z,101123
2017-04-09T10:13:28.509Z,101125
2017-04-09T10:14:28.612Z,101121
2017-04-09T10:15:29.402Z,101118
2017-04-09T10:16:28.646Z,101121
2017-04-09T10:17:29.227Z,101124
2017-04-09T10:18:29.310Z,101116
2017-04-09T10:19:28.817Z,101125
2017-04-09T10:20:28.814Z,101117
2017-04-09T10:21:29.169Z,101122
2017-04-09T10:22:29.551Z,101118
2017-04-09T10:23:29.601Z,101123
2017-04-09T10:24:29.153Z,101113
2017-04-09T10:25:29.711Z,101120
2017-04-09T10:26:29.728Z,101117
2017-04-09T10:27:30.072Z,101108
2017-04-09T10:28:29.344Z,101105
2017-04-09T10:29:29.854Z,101111
2017-04-09T10:30:29.923Z,101112
2017-04-09T10:31:29.409Z,101110
2017-04-09T10:32:29.949Z,101109
2017-04-09T10:33:29.760Z,101110
2017-04-09T10:34:29.975Z,101110
2017-04-09T10:35:30.052Z,101109
2017-04-09T10:36:29.597Z,101114
2017-04-09T10:37:29.663Z,101113
2017-04-09T10:38:29.783Z,101110
2017-04-09T10:39:30.599Z,101110
2017-04-09T10:40:30.333Z,101111
2017-04-09T10:41:29.824Z,101114
2017-04-09T10:42:30.410Z,101104
2017-04-09T10:43:30.498Z,101107
2017-04-09T10:44:30.587Z,101103
2017-04-09T10:45:30.908Z,101102
2017-04-09T10:46:30.765Z,101104
2017-04-09T10:47:30.253Z,101097
2017-04-09T10:48:30.362Z,101104
2017-04-09T10:49:30.329Z,101100
2017-04-09T10:50:30.356Z,101102
2017-04-09T10:51:30.745Z,101093
2017-04-09T10:52:30.471Z,101091
2017-04-09T10:53:30.546Z,101091
2017-04-09T10:54:31.130Z,101091
2017-04-09T10:55:31.215Z,101099
2017-04-09T10:56:30.705Z,101103
2017-04-09T10:57:31.541Z,101101
2017-04-09T10:58:30.803Z,101100
2017-04-09T10:59:30.761Z,101096
2017-04-09T11:00:31.370Z,101099
2017-04-09T11:01:30.935Z,101097
2017-04-09T11:02:30.969Z,101098
2017-04-09T11:03:31.324Z,101101
2017-04-09T11:04:31.587Z,101090
2017-04-09T11:05:31.691Z,101090
2017-04-09T11:06:31.207Z,101098
2017-04-09T11:08:31.764Z,101098
2017-04-09T11:09:31.628Z,101094
2017-04-09T11:10:31.433Z,101096
2017-04-09T11:11:32.094Z,101093
2017-04-09T11:12:32.099Z,101094
2017-04-09T11:13:31.583Z,101089
2017-04-09T11:14:31.678Z,101089
2017-04-09T11:15:32.073Z,101086
2017-04-09T11:16:31.820Z,101085
2017-04-09T11:17:31.891Z,101085
2017-04-09T11:18:32.396Z,101079
2017-04-09T11:19:31.968Z,101082
2017-04-09T11:20:31.947Z,101076
2017-04-09T11:21:32.246Z,101072
2017-04-09T11:22:32.015Z,101078
2017-04-09T11:23:32.594Z,101070
2017-04-09T11:24:32.110Z,101074
2017-04-09T11:25:32.179Z,101075
2017-04-09T11:26:32.742Z,101069
2017-04-09T11:27:32.573Z,101073
2017-04-09T11:28:32.354Z,101069
2017-04-09T11:29:32.379Z,101075
2017-04-09T11:30:32.389Z,101074
2017-04-09T11:31:32.445Z,101075
2017-04-09T11:32:33.004Z,101070
2017-04-09T11:33:32.772Z,101078
2017-04-09T11:34:32.498Z,101070
2017-04-09T11:35:33.248Z,101066
2017-04-09T11:36:33.136Z,101073
2017-04-09T11:37:33.211Z,101070
2017-04-09T11:39:32.686Z,101070
2017-04-09T11:40:32.705Z,101063
2017-04-09T11:41:32.824Z,101067
2017-04-09T11:42:33.551Z,101065
2017-04-09T11:43:32.828Z,101065
2017-04-09T11:44:33.706Z,101062
2017-04-09T11:45:32.961Z,101065
2017-04-09T11:46:32.976Z,101063
2017-04-09T11:47:33.530Z,101060
2017-04-09T11:48:32.985Z,101062
2017-04-09T11:49:32.990Z,101062
2017-04-09T11:50:33.345Z,101061
2017-04-09T11:51:33.025Z,101060
2017-04-09T11:52:33.650Z,101055
2017-04-09T11:53:33.641Z,101055
2017-04-09T11:54:33.753Z,101055
2017-04-09T11:55:33.783Z,101056
2017-04-09T11:56:33.606Z,101049
2017-04-09T11:57:33.846Z,101044
2017-04-09T11:58:33.922Z,101054
2017-04-09T11:59:33.938Z,101051
2017-04-09T12:00:33.997Z,101047
2017-04-09T12:01:33.518Z,101048
2017-04-09T12:02:34.446Z,101043
2017-04-09T12:03:33.682Z,101044
2017-04-09T12:04:34.291Z,101042
2017-04-09T12:05:33.719Z,101044
2017-04-09T12:06:34.358Z,101043
2017-04-09T12:07:34.452Z,101044
2017-04-09T12:08:34.726Z,101047
2017-04-09T12:09:33.947Z,101043
2017-04-09T12:10:34.492Z,101038
2017-04-09T12:11:34.007Z,101038
2017-04-09T12:12:34.042Z,101035
2017-04-09T12:13:34.656Z,101039
2017-04-09T12:14:34.422Z,101037
2017-04-09T12:15:34.739Z,101033
2017-04-09T12:16:34.260Z,101031
2017-04-09T12:17:34.222Z,101031
2017-04-09T12:18:34.854Z,101030
2017-04-09T12:19:34.410Z,101028
2017-04-09T12:20:35.248Z,101031
2017-04-09T12:21:34.534Z,101028
2017-04-09T12:22:34.532Z,101027
2017-04-09T12:23:34.598Z,101024
2017-04-09T12:24:35.200Z,101030
2017-04-09T12:25:35.312Z,101029
2017-04-09T12:26:35.642Z,101027
2017-04-09T12:27:34.875Z,101026
2017-04-09T12:28:35.461Z,101023
2017-04-09T12:29:34.986Z,101023
2017-04-09T12:30:35.516Z,101023